createdAt,value
2023-01-17T00:02:35.276Z,4.88
2023-01-17T00:05:59.031Z,4.84
2023-01-17T00:09:19.849Z,4.84
2023-01-17T00:12:24.505Z,4.89
2023-01-17T00:15:28.415Z,4.85
2023-01-17T00:18:30.848Z,4.90
2023-01-17T00:21:52.075Z,4.98
2023-01-17T00:25:12.906Z,4.98
2023-01-17T00:28:15.544Z,5.06
2023-01-17T00:31:18.712Z,5.08
2023-01-17T00:34:21.272Z,5.03
2023-01-17T00:37:23.647Z,5.17
2023-01-17T00:40:26.179Z,5.23
2023-01-17T00:43:48.613Z,5.15
2023-01-17T00:47:09.540Z,5.22
2023-01-17T00:50:30.207Z,5.18
2023-01-17T00:53:50.967Z,5.25
2023-01-17T00:57:12.797Z,5.21
2023-01-17T01:00:35.842Z,5.32
2023-01-17T01:03:57.471Z,5.20
2023-01-17T01:07:18.524Z,5.35
2023-01-17T01:10:39.645Z,5.33
2023-01-17T01:14:00.822Z,5.32
2023-01-17T01:17:21.738Z,5.40
2023-01-17T01:20:45.312Z,5.43
2023-01-17T01:24:06.560Z,5.40
2023-01-17T01:27:27.368Z,5.44
2023-01-17T01:30:48.451Z,5.35
2023-01-17T01:33:52.246Z,5.47
2023-01-17T01:36:54.858Z,5.44
2023-01-17T01:39:57.381Z,5.40
2023-01-17T01:43:05.715Z,5.37
2023-01-17T01:46:11.431Z,5.28
2023-01-17T01:49:26.164Z,5.21
2023-01-17T01:52:31.651Z,5.23
2023-01-17T01:55:38.783Z,5.16
2023-01-17T01:58:45.832Z,5.00
2023-01-17T02:01:51.726Z,4.94
2023-01-17T02:04:55.100Z,5.03
2023-01-17T02:08:03.588Z,5.06
2023-01-17T02:11:07.242Z,5.06
2023-01-17T02:14:19.117Z,5.18
2023-01-17T02:17:36.478Z,5.25
2023-01-17T02:20:50.884Z,5.32
2023-01-17T02:24:11.771Z,5.30
2023-01-17T02:27:46.629Z,5.31
2023-01-17T02:30:54.616Z,5.23
2023-01-17T02:34:10.853Z,5.31
2023-01-17T02:37:22.918Z,5.30
2023-01-17T02:40:35.261Z,5.26
2023-01-17T02:43:39.539Z,5.21
2023-01-17T02:46:49.076Z,5.34
2023-01-17T02:50:01.600Z,5.24
2023-01-17T02:53:06.798Z,5.36
2023-01-17T02:56:11.921Z,5.35
2023-01-17T02:59:20.993Z,5.27
2023-01-17T03:02:43.832Z,5.27
2023-01-17T03:05:51.932Z,5.27
2023-01-17T03:08:54.854Z,5.27
2023-01-17T03:11:58.995Z,5.23
2023-01-17T03:15:01.552Z,5.18
2023-01-17T03:18:08.348Z,5.26
2023-01-17T03:21:11.207Z,5.06
2023-01-17T03:24:13.691Z,5.10
2023-01-17T03:27:16.389Z,5.31
2023-01-17T03:30:20.452Z,5.23
2023-01-17T03:33:23.520Z,5.26
2023-01-17T03:36:26.008Z,5.25
2023-01-17T03:39:29.006Z,5.21
2023-01-17T03:42:31.428Z,5.39
2023-01-17T03:45:33.904Z,5.42
2023-01-17T03:48:36.312Z,5.42
2023-01-17T03:51:38.962Z,5.41
2023-01-17T03:54:41.417Z,5.35
2023-01-17T03:57:45.231Z,5.32
2023-01-17T04:00:47.814Z,5.32
2023-01-17T04:03:50.447Z,5.43
2023-01-17T04:06:52.984Z,5.47
2023-01-17T04:09:55.455Z,5.45
2023-01-17T04:12:57.983Z,5.42
2023-01-17T04:16:00.440Z,5.45
2023-01-17T04:19:02.970Z,5.38
2023-01-17T04:22:05.491Z,5.30
2023-01-17T04:25:08.417Z,5.40
2023-01-17T04:28:11.222Z,5.40
2023-01-17T04:31:16.710Z,5.40
2023-01-17T04:34:19.209Z,5.26
2023-01-17T04:37:22.684Z,5.31
2023-01-17T04:40:25.863Z,5.39
2023-01-17T04:43:28.336Z,5.40
2023-01-17T04:46:31.004Z,5.42
2023-01-17T04:49:33.556Z,5.43
2023-01-17T04:52:36.296Z,5.25
2023-01-17T04:55:38.814Z,5.27
2023-01-17T04:58:41.746Z,5.24
2023-01-17T05:01:44.625Z,5.31
2023-01-17T05:04:47.120Z,5.26
2023-01-17T05:07:59.026Z,5.37
2023-01-17T05:11:02.581Z,5.32
2023-01-17T05:14:05.279Z,5.27
2023-01-17T05:17:07.935Z,5.24
2023-01-17T05:20:11.761Z,5.24
2023-01-17T05:23:14.268Z,5.25
2023-01-17T05:26:17.058Z,5.36
2023-01-17T05:29:20.239Z,5.39
2023-01-17T05:32:22.765Z,5.35
2023-01-17T05:35:28.693Z,5.41
2023-01-17T05:38:31.191Z,5.26
2023-01-17T05:41:33.993Z,5.34
2023-01-17T05:44:36.512Z,5.41
2023-01-17T05:47:39.008Z,5.30
2023-01-17T05:50:41.504Z,5.44
2023-01-17T05:53:43.898Z,5.40
2023-01-17T05:56:46.797Z,5.44
2023-01-17T05:59:49.156Z,5.43
2023-01-17T06:02:56.150Z,5.36
2023-01-17T06:05:58.867Z,5.34
2023-01-17T06:09:01.836Z,5.32
2023-01-17T06:12:04.847Z,5.35
2023-01-17T06:15:08.065Z,5.20
2023-01-17T06:18:13.660Z,5.39
2023-01-17T06:21:16.259Z,5.27
2023-01-17T06:24:18.719Z,5.36
2023-01-17T06:27:21.608Z,5.31
2023-01-17T06:30:24.229Z,5.28
2023-01-17T06:33:27.098Z,5.27
2023-01-17T06:36:30.290Z,5.15
2023-01-17T06:39:33.131Z,5.15
2023-01-17T06:42:35.604Z,5.22
2023-01-17T06:45:38.236Z,5.16
2023-01-17T06:48:43.887Z,5.09
2023-01-17T06:51:46.644Z,5.14
2023-01-17T06:54:49.253Z,5.12
2023-01-17T06:57:51.974Z,5.06
2023-01-17T07:00:54.667Z,5.07
2023-01-17T07:03:57.623Z,5.07
2023-01-17T07:07:01.342Z,5.13
2023-01-17T07:10:05.096Z,5.14
2023-01-17T07:13:07.679Z,5.16
2023-01-17T07:16:10.139Z,5.10
2023-01-17T07:19:13.105Z,5.22
2023-01-17T07:22:15.952Z,5.16
2023-01-17T07:25:20.172Z,4.97
2023-01-17T07:28:24.108Z,5.07
2023-01-17T07:31:26.686Z,5.06
2023-01-17T07:34:29.370Z,4.99
2023-01-17T07:37:32.006Z,5.00
2023-01-17T07:40:41.827Z,4.82
2023-01-17T07:43:44.558Z,4.72
2023-01-17T07:46:47.166Z,4.73
2023-01-17T07:49:49.717Z,4.78
2023-01-17T07:52:52.459Z,4.81
2023-01-17T07:55:55.298Z,4.87
2023-01-17T07:58:57.777Z,4.68
2023-01-17T08:02:00.403Z,4.70
2023-01-17T08:05:03.045Z,4.63
2023-01-17T08:08:08.843Z,4.71
2023-01-17T08:11:11.383Z,4.79
2023-01-17T08:14:13.930Z,4.72
2023-01-17T08:17:17.138Z,4.66
2023-01-17T08:20:20.400Z,4.74
2023-01-17T08:23:23.314Z,4.55
2023-01-17T08:26:25.818Z,4.57
2023-01-17T08:29:29.776Z,4.85
2023-01-17T08:32:32.359Z,5.19
2023-01-17T08:35:36.229Z,4.94
2023-01-17T08:38:39.094Z,4.66
2023-01-17T08:41:41.745Z,4.47
2023-01-17T08:44:44.250Z,4.70
2023-01-17T08:47:46.737Z,4.80
2023-01-17T08:50:49.856Z,4.57
2023-01-17T08:53:53.669Z,4.40
2023-01-17T08:56:56.151Z,4.42
2023-01-17T08:59:59.393Z,4.46
2023-01-17T09:03:01.960Z,4.49
2023-01-17T09:06:13.307Z,4.51
2023-01-17T09:09:17.278Z,4.55
2023-01-17T09:12:22.312Z,4.61
2023-01-17T09:15:25.106Z,4.59
2023-01-17T09:18:28.652Z,4.64
2023-01-17T09:21:31.284Z,4.80
2023-01-17T09:24:33.823Z,4.89
2023-01-17T09:27:36.262Z,4.89
2023-01-17T09:30:38.878Z,5.02
2023-01-17T09:33:42.778Z,5.34
2023-01-17T09:36:45.353Z,6.06
2023-01-17T09:39:49.806Z,6.54
2023-01-17T09:43:01.550Z,7.48
2023-01-17T09:46:06.142Z,7.77
2023-01-17T09:49:15.148Z,8.05
2023-01-17T09:52:21.245Z,8.27
2023-01-17T09:55:23.804Z,8.98
2023-01-17T09:58:34.845Z,10.01
2023-01-17T10:02:00.118Z,10.97
2023-01-17T10:05:02.689Z,11.37
2023-01-17T10:08:34.520Z,11.31
2023-01-17T10:12:09.911Z,12.40
2023-01-17T10:15:24.625Z,12.33
2023-01-17T10:19:00.753Z,12.24
2023-01-17T10:22:31.189Z,12.68
2023-01-17T10:25:56.403Z,12.08
2023-01-17T10:29:02.915Z,11.78
2023-01-17T10:32:05.885Z,12.46
2023-01-17T10:35:20.053Z,14.14
2023-01-17T10:38:32.809Z,13.74
2023-01-17T10:41:45.624Z,13.34
2023-01-17T10:44:57.764Z,14.49
2023-01-17T10:48:39.538Z,15.06
2023-01-17T10:51:43.110Z,15.47
2023-01-17T10:54:51.626Z,15.26
2023-01-17T10:57:54.568Z,16.67
2023-01-17T11:01:22.156Z,17.71
2023-01-17T11:04:42.218Z,17.46
2023-01-17T11:08:03.863Z,17.29
2023-01-17T11:11:06.335Z,16.84
2023-01-17T11:14:22.341Z,16.98
2023-01-17T11:17:27.647Z,16.91
2023-01-17T11:20:36.475Z,15.88
2023-01-17T11:23:42.221Z,17.03
2023-01-17T11:26:49.442Z,16.80
2023-01-17T11:30:21.936Z,15.71
2023-01-17T11:33:34.031Z,16.35
2023-01-17T11:36:36.738Z,17.45
2023-01-17T11:39:39.272Z,16.82
2023-01-17T11:42:41.867Z,18.27
2023-01-17T11:45:45.518Z,19.21
2023-01-17T11:48:52.459Z,20.18
2023-01-17T11:51:57.932Z,21.20
2023-01-17T11:55:00.763Z,22.84
2023-01-17T11:58:03.432Z,20.97
2023-01-17T12:01:23.995Z,20.37
2023-01-17T12:04:42.742Z,22.06
2023-01-17T12:08:12.392Z,21.52
2023-01-17T12:11:35.950Z,22.53
2023-01-17T12:14:50.609Z,21.86
2023-01-17T12:18:11.523Z,20.32
2023-01-17T12:21:22.734Z,18.77
2023-01-17T12:24:49.999Z,15.44
2023-01-17T12:28:04.407Z,13.65
2023-01-17T12:31:40.138Z,13.14
2023-01-17T12:34:53.563Z,13.96
2023-01-17T12:38:08.969Z,14.66
2023-01-17T12:41:24.409Z,14.80
2023-01-17T12:44:33.756Z,14.80
2023-01-17T12:47:42.881Z,14.14
2023-01-17T12:50:59.193Z,14.39
2023-01-17T12:54:25.574Z,13.33
2023-01-17T12:57:40.822Z,12.23
2023-01-17T13:00:48.755Z,11.88
2023-01-17T13:04:16.372Z,11.61
2023-01-17T13:07:42.087Z,11.46
2023-01-17T13:10:51.963Z,11.17
2023-01-17T13:13:57.948Z,10.57
2023-01-17T13:17:19.177Z,10.48
2023-01-17T13:20:37.729Z,10.22
2023-01-17T13:24:07.654Z,10.10
2023-01-17T13:27:09.987Z,9.99
2023-01-17T13:30:24.392Z,9.69
2023-01-17T13:33:40.984Z,9.57
2023-01-17T13:37:13.211Z,9.44
2023-01-17T13:40:29.702Z,9.21
2023-01-17T13:43:39.434Z,9.12
2023-01-17T13:46:53.742Z,9.04
2023-01-17T13:49:59.360Z,8.85
2023-01-17T13:53:27.323Z,8.87
2023-01-17T13:56:32.426Z,8.78
2023-01-17T13:59:35.957Z,8.71
2023-01-17T14:02:39.063Z,8.77
2023-01-17T14:05:41.426Z,8.80
2023-01-17T14:08:45.544Z,8.61
2023-01-17T14:12:06.382Z,8.54
2023-01-17T14:15:23.805Z,8.62
2023-01-17T14:18:46.472Z,8.53
2023-01-17T14:21:49.177Z,8.29
2023-01-17T14:25:20.417Z,8.25
2023-01-17T14:28:30.842Z,8.22
2023-01-17T14:31:33.501Z,8.13
2023-01-17T14:34:36.742Z,8.20
2023-01-17T14:37:48.140Z,8.01
2023-01-17T14:40:57.575Z,7.99
2023-01-17T14:44:01.085Z,7.95
2023-01-17T14:47:03.761Z,7.86
2023-01-17T14:50:18.395Z,7.87
2023-01-17T14:53:22.182Z,7.92
2023-01-17T14:56:27.458Z,7.77
2023-01-17T14:59:29.870Z,7.68
2023-01-17T15:02:32.636Z,7.69
2023-01-17T15:05:35.188Z,7.68
2023-01-17T15:08:37.738Z,7.67
2023-01-17T15:11:41.218Z,7.67
2023-01-17T15:14:46.334Z,7.66
2023-01-17T15:17:48.802Z,7.62
2023-01-17T15:20:55.898Z,7.63
2023-01-17T15:24:02.368Z,7.59
2023-01-17T15:27:06.352Z,7.44
2023-01-17T15:30:15.091Z,7.38
2023-01-17T15:33:21.107Z,7.37
2023-01-17T15:36:30.179Z,7.36
2023-01-17T15:39:39.158Z,7.42
2023-01-17T15:42:43.725Z,7.44
2023-01-17T15:45:58.262Z,7.41
2023-01-17T15:49:29.086Z,7.40
2023-01-17T15:52:31.818Z,7.30
2023-01-17T15:55:37.734Z,7.24
2023-01-17T15:58:40.232Z,7.28
2023-01-17T16:01:44.378Z,7.29
2023-01-17T16:04:47.096Z,7.32
2023-01-17T16:07:57.969Z,7.45
2023-01-17T16:11:03.262Z,7.25
2023-01-17T16:14:07.914Z,7.35
2023-01-17T16:17:17.776Z,7.33
2023-01-17T16:20:29.545Z,7.18
2023-01-17T16:23:32.079Z,7.27
2023-01-17T16:26:34.939Z,7.30
2023-01-17T16:29:37.703Z,7.31
2023-01-17T16:32:40.232Z,7.20
2023-01-17T16:35:44.146Z,7.18
2023-01-17T16:38:49.632Z,7.20
2023-01-17T16:41:59.783Z,7.04
2023-01-17T16:45:02.283Z,7.18
2023-01-17T16:51:24.946Z,7.16
2023-01-17T16:54:27.972Z,7.13
2023-01-17T16:57:30.420Z,7.09
2023-01-17T17:00:33.426Z,7.00
2023-01-17T17:03:35.910Z,7.04
2023-01-17T17:06:39.350Z,6.97
2023-01-17T17:09:42.152Z,6.73
2023-01-17T17:12:44.978Z,6.83
2023-01-17T17:15:47.546Z,6.76
2023-01-17T17:19:01.302Z,6.71
2023-01-17T17:22:06.526Z,6.65
2023-01-17T17:25:09.975Z,6.64
2023-01-17T17:28:12.465Z,6.66
2023-01-17T17:31:14.998Z,6.39
2023-01-17T17:34:17.762Z,6.52
2023-01-17T17:37:21.873Z,6.42
2023-01-17T17:40:24.411Z,6.41
2023-01-17T17:43:26.904Z,6.54
2023-01-17T17:46:30.295Z,6.47
2023-01-17T17:49:32.903Z,6.37
2023-01-17T17:52:35.313Z,6.27
2023-01-17T17:55:40.086Z,6.24
2023-01-17T17:58:43.782Z,6.11
2023-01-17T18:01:48.465Z,6.01
2023-01-17T18:04:51.523Z,6.00
2023-01-17T18:07:54.737Z,6.08
2023-01-17T18:11:00.575Z,6.07
2023-01-17T18:14:05.710Z,5.99
2023-01-17T18:17:08.291Z,6.02
2023-01-17T18:20:11.174Z,5.99
2023-01-17T18:23:13.697Z,5.97
2023-01-17T18:26:39.282Z,5.85
2023-01-17T18:29:41.904Z,5.97
2023-01-17T18:32:45.938Z,5.90
2023-01-17T18:35:59.984Z,5.84
2023-01-17T18:39:10.671Z,5.87
2023-01-17T18:42:14.277Z,5.93
2023-01-17T18:45:17.039Z,5.83
2023-01-17T18:48:19.832Z,5.79
2023-01-17T18:51:23.120Z,5.83
2023-01-17T18:54:27.912Z,5.74
2023-01-17T18:57:30.925Z,5.74
2023-01-17T19:00:33.761Z,5.68
2023-01-17T19:03:37.911Z,5.77
2023-01-17T19:06:42.979Z,5.66
2023-01-17T19:09:45.741Z,5.55
2023-01-17T19:12:48.344Z,5.56
2023-01-17T19:15:51.465Z,5.50
2023-01-17T19:18:55.521Z,5.50
2023-01-17T19:21:58.170Z,5.43
2023-01-17T19:25:01.323Z,5.41
2023-01-17T19:28:04.557Z,5.26
2023-01-17T19:31:08.478Z,5.26
2023-01-17T19:34:14.207Z,5.19
2023-01-17T19:37:16.906Z,5.21
2023-01-17T19:40:20.425Z,5.25
2023-01-17T19:43:23.335Z,5.13
2023-01-17T19:46:27.383Z,5.16
2023-01-17T19:49:32.201Z,5.08
2023-01-17T19:52:38.993Z,5.02
2023-01-17T19:55:41.592Z,5.03
2023-01-17T19:58:45.529Z,4.95
2023-01-17T20:01:49.544Z,4.92
2023-01-17T20:04:52.328Z,4.86
2023-01-17T20:07:55.824Z,4.83
2023-01-17T20:11:05.100Z,4.81
2023-01-17T20:14:09.982Z,4.78
2023-01-17T20:17:12.891Z,4.65
2023-01-17T20:20:17.252Z,4.61
2023-01-17T20:23:19.897Z,4.53
2023-01-17T20:26:25.353Z,4.42
2023-01-17T20:29:27.974Z,4.44
2023-01-17T20:32:31.079Z,4.38
2023-01-17T20:35:34.162Z,4.19
2023-01-17T20:38:45.819Z,4.22
2023-01-17T20:41:51.479Z,4.10
2023-01-17T20:44:54.007Z,4.12
2023-01-17T20:47:56.675Z,4.11
2023-01-17T20:51:10.679Z,4.08
2023-01-17T20:54:16.299Z,4.06
2023-01-17T20:57:18.759Z,3.95
2023-01-17T21:00:21.819Z,3.83
2023-01-17T21:03:28.820Z,3.85
2023-01-17T21:06:31.499Z,3.67
2023-01-17T21:09:35.165Z,3.66
2023-01-17T21:12:37.866Z,3.54
2023-01-17T21:15:44.602Z,3.52
2023-01-17T21:18:48.489Z,3.47
2023-01-17T21:21:51.533Z,3.40
2023-01-17T21:24:54.426Z,3.39
2023-01-17T21:27:57.202Z,3.38
2023-01-17T21:31:00.334Z,3.26
2023-01-17T21:34:09.074Z,3.33
2023-01-17T21:37:11.478Z,3.29
2023-01-17T21:40:14.664Z,3.34
2023-01-17T21:43:17.013Z,3.40
2023-01-17T21:46:19.452Z,3.41
2023-01-17T21:49:22.074Z,3.48
2023-01-17T21:52:24.520Z,3.44
2023-01-17T21:55:45.739Z,3.38
2023-01-17T21:58:53.723Z,3.40
2023-01-17T22:01:56.232Z,3.42
2023-01-17T22:04:58.673Z,3.48
2023-01-17T22:08:14.737Z,3.52
2023-01-17T22:11:20.393Z,3.42
2023-01-17T22:14:22.852Z,3.48
2023-01-17T22:17:25.267Z,3.55
2023-01-17T22:20:27.826Z,3.52
2023-01-17T22:23:30.867Z,3.64
2023-01-17T22:26:33.474Z,3.60
2023-01-17T22:29:38.375Z,3.59
2023-01-17T22:32:41.239Z,3.67
2023-01-17T22:35:44.120Z,3.66
2023-01-17T22:38:47.109Z,3.54
2023-01-17T22:41:49.552Z,3.60
2023-01-17T22:44:51.937Z,3.52
2023-01-17T22:47:54.388Z,3.60
2023-01-17T22:51:00.466Z,3.62
2023-01-17T22:54:04.647Z,3.53
2023-01-17T22:57:07.057Z,3.57
2023-01-17T23:00:14.639Z,3.67
2023-01-17T23:03:17.382Z,3.62
2023-01-17T23:06:23.036Z,3.74
2023-01-17T23:09:25.642Z,3.75
2023-01-17T23:12:28.056Z,3.77
2023-01-17T23:15:48.905Z,3.80
2023-01-17T23:19:10.396Z,3.87
2023-01-17T23:22:21.012Z,3.95
2023-01-17T23:25:24.013Z,3.92
2023-01-17T23:28:26.435Z,3.98
2023-01-17T23:31:28.864Z,3.91
2023-01-17T23:34:31.377Z,3.90
2023-01-17T23:37:52.829Z,3.92
2023-01-17T23:41:25.488Z,3.99
2023-01-17T23:44:31.985Z,3.93
2023-01-17T23:47:34.421Z,3.90
2023-01-17T23:50:41.556Z,3.98
2023-01-17T23:53:43.971Z,3.96
2023-01-17T23:56:46.514Z,4.01
2023-01-17T23:59:48.952Z,4.01
